createdAt,value
2022-09-12T03:39:51.523Z,100242.34
2022-09-12T03:42:54.417Z,100242.34
2022-09-12T03:45:56.812Z,100239.84
2022-09-12T03:48:59.744Z,100235.69
2022-09-12T03:52:02.530Z,100245.06
2022-09-12T03:55:06.090Z,100237.16
2022-09-12T03:58:08.826Z,100242.78
2022-09-12T04:01:15.045Z,100237.31
2022-09-12T04:04:17.864Z,100245.81
2022-09-12T04:07:20.457Z,100242.72
2022-09-12T04:10:27.655Z,100241.88
2022-09-12T04:13:30.046Z,100243.38
2022-09-12T04:16:32.972Z,100253.13
2022-09-12T04:19:35.819Z,100249.25
2022-09-12T04:22:38.508Z,100245.75
2022-09-12T04:25:40.983Z,100246.09
2022-09-12T04:28:44.512Z,100257.28
2022-09-12T04:31:47.333Z,100253.50
2022-09-12T04:34:50.231Z,100257.28
2022-09-12T04:37:52.813Z,100253.56
2022-09-12T04:40:57.096Z,100251.88
2022-09-12T04:44:02.452Z,100248.50
2022-09-12T04:47:05.506Z,100255.38
2022-09-12T04:50:08.438Z,100252.94
2022-09-12T04:53:11.360Z,100260.97
2022-09-12T04:56:13.922Z,100253.31
2022-09-12T04:59:18.514Z,100258.31
2022-09-12T05:02:21.223Z,100254.22
2022-09-12T05:05:23.967Z,100263.87
2022-09-12T05:08:26.547Z,100256.50
2022-09-12T05:11:53.112Z,100255.50
2022-09-12T05:14:55.129Z,100265.06
2022-09-12T05:17:57.894Z,100265.50
2022-09-12T05:21:02.180Z,100257.94
2022-09-12T05:24:06.405Z,100267.31
2022-09-12T05:27:09.494Z,100268.31
2022-09-12T05:30:12.446Z,100275.38
2022-09-12T05:33:15.641Z,100283.16
2022-09-12T05:36:24.410Z,100290.47
2022-09-12T05:39:27.143Z,100296.34
2022-09-12T05:42:30.364Z,100298.44
2022-09-12T05:45:33.114Z,100312.09
2022-09-12T05:48:37.180Z,100305.31
2022-09-12T05:51:43.268Z,100311.69
2022-09-12T05:54:47.520Z,100304.34
2022-09-12T05:57:50.579Z,100304.50
2022-09-12T06:00:53.687Z,100302.50
2022-09-12T06:04:00.676Z,100303.97
2022-09-12T06:07:03.233Z,100310.28
2022-09-12T06:10:06.376Z,100308.28
2022-09-12T06:13:08.859Z,100297.22
2022-09-12T06:16:21.587Z,100309.22
2022-09-12T06:19:25.358Z,100302.56
2022-09-12T06:22:28.208Z,100312.56
2022-09-12T06:25:30.724Z,100313.66
2022-09-12T06:28:36.645Z,100309.84
2022-09-12T06:31:41.445Z,100319.31
2022-09-12T06:34:48.413Z,100317.25
2022-09-12T06:37:51.030Z,100315.09
2022-09-12T06:40:53.868Z,100325.97
2022-09-12T06:43:57.021Z,100332.78
2022-09-12T06:46:59.941Z,100333.91
2022-09-12T06:50:02.481Z,100323.75
2022-09-12T06:53:05.357Z,100323.75
2022-09-12T06:56:12.078Z,100326.06
2022-09-12T06:59:14.910Z,100333.69
2022-09-12T07:02:17.553Z,100317.19
2022-09-12T07:05:20.344Z,100317.47
2022-09-12T07:08:23.126Z,100319.06
2022-09-12T07:11:26.665Z,100323.00
2022-09-12T07:14:29.013Z,100327.56
2022-09-12T07:17:31.796Z,100334.03
2022-09-12T07:20:34.547Z,100331.03
2022-09-12T07:23:37.784Z,100329.56
2022-09-12T07:26:41.619Z,100336.00
2022-09-12T07:29:47.352Z,100335.56
2022-09-12T07:32:54.072Z,100332.25
2022-09-12T07:36:03.836Z,100342.50
2022-09-12T07:39:06.399Z,100341.38
2022-09-12T07:42:09.280Z,100348.53
2022-09-12T07:45:12.933Z,100348.53
2022-09-12T07:48:16.387Z,100346.50
2022-09-12T07:51:19.584Z,100347.81
2022-09-12T07:54:22.944Z,100346.97
2022-09-12T07:57:25.771Z,100342.75
2022-09-12T08:00:35.731Z,100343.19
2022-09-12T08:03:39.620Z,100335.19
2022-09-12T08:06:42.139Z,100342.84
2022-09-12T08:09:45.014Z,100343.97
2022-09-12T08:12:47.598Z,100348.31
2022-09-12T08:15:50.405Z,100341.59
2022-09-12T08:18:53.400Z,100343.81
2022-09-12T08:21:56.108Z,100346.66
2022-09-12T08:24:58.698Z,100346.25
2022-09-12T08:28:01.577Z,100349.19
2022-09-12T08:31:10.545Z,100343.41
2022-09-12T08:34:13.504Z,100340.84
2022-09-12T08:37:16.017Z,100341.53
2022-09-12T08:40:19.010Z,100344.22
2022-09-12T08:43:59.553Z,100340.53
2022-09-12T08:47:17.323Z,100342.66
2022-09-12T08:50:22.445Z,100336.78
2022-09-12T08:53:30.218Z,100345.22
2022-09-12T08:56:38.485Z,100341.72
2022-09-12T08:59:48.261Z,100338.56
2022-09-12T09:03:44.263Z,100334.50
2022-09-12T09:07:14.772Z,100331.50
2022-09-12T09:10:30.614Z,100338.81
2022-09-12T09:14:01.908Z,100332.75
2022-09-12T09:17:20.328Z,100330.91
2022-09-12T09:20:39.282Z,100327.22
2022-09-12T09:23:46.976Z,100329.28
2022-09-12T09:27:00.279Z,100324.81
2022-09-12T09:30:03.849Z,100325.16
2022-09-12T09:33:15.225Z,100314.38
2022-09-12T09:36:59.865Z,100320.03
2022-09-12T09:40:23.218Z,100327.03
2022-09-12T09:43:29.216Z,100325.75
2022-09-12T09:46:32.413Z,100323.34
2022-09-12T09:49:36.228Z,100322.19
2022-09-12T09:52:39.958Z,100324.22
2022-09-12T09:55:43.936Z,100319.69
2022-09-12T09:58:46.891Z,100320.06
2022-09-12T10:01:53.808Z,100320.81
2022-09-12T10:04:58.811Z,100319.88
2022-09-12T10:08:03.296Z,100323.66
2022-09-12T10:11:30.320Z,100315.72
2022-09-12T10:14:36.847Z,100320.84
2022-09-12T10:17:46.565Z,100323.50
2022-09-12T10:20:49.355Z,100325.94
2022-09-12T10:24:28.743Z,100318.75
2022-09-12T10:27:33.174Z,100327.31
2022-09-12T10:30:36.282Z,100322.25
2022-09-12T10:33:44.120Z,100326.44
2022-09-12T10:36:47.484Z,100323.81
2022-09-12T10:39:54.527Z,100321.75
2022-09-12T10:42:59.672Z,100318.87
2022-09-12T10:46:14.706Z,100322.13
2022-09-12T10:49:40.037Z,100315.81
2022-09-12T10:52:42.640Z,100312.75
2022-09-12T10:56:04.603Z,100323.62
2022-09-12T10:59:26.607Z,100311.81
2022-09-12T11:02:33.324Z,100303.22
2022-09-12T11:05:51.708Z,100312.34
2022-09-12T11:09:06.003Z,100300.59
2022-09-12T11:12:18.735Z,100301.78
2022-09-12T11:15:27.552Z,100303.22
2022-09-12T11:19:04.117Z,100298.75
2022-09-12T11:22:22.312Z,100288.03
2022-09-12T11:26:03.320Z,100289.50
2022-09-12T11:29:28.950Z,100296.38
2022-09-12T11:32:43.842Z,100289.91
2022-09-12T11:35:55.518Z,100297.69
2022-09-12T11:39:03.755Z,100300.31
2022-09-12T11:42:15.593Z,100289.06
2022-09-12T11:45:18.198Z,100290.22
2022-09-12T11:48:33.201Z,100299.84
2022-09-12T11:51:49.547Z,100288.19
2022-09-12T11:55:12.875Z,100297.59
2022-09-12T11:58:20.175Z,100294.59
2022-09-12T12:01:42.908Z,100291.78
2022-09-12T12:05:03.796Z,100293.22
2022-09-12T12:08:07.191Z,100296.50
2022-09-12T12:11:12.455Z,100289.78
2022-09-12T12:14:22.970Z,100286.38
2022-09-12T12:17:27.291Z,100290.78
2022-09-12T12:20:29.854Z,100279.03
2022-09-12T12:23:35.295Z,100272.69
2022-09-12T12:26:40.681Z,100270.56
2022-09-12T12:29:45.343Z,100276.28
2022-09-12T12:32:47.833Z,100279.66
2022-09-12T12:36:09.694Z,100274.22
2022-09-12T12:39:33.941Z,100268.00
2022-09-12T12:42:36.740Z,100268.06
2022-09-12T12:45:39.164Z,100271.47
2022-09-12T12:49:00.324Z,100275.56
2022-09-12T12:52:03.007Z,100272.38
2022-09-12T12:55:06.228Z,100275.13
2022-09-12T12:58:37.623Z,100265.78
2022-09-12T13:01:51.533Z,100255.41
2022-09-12T13:04:59.894Z,100274.66
2022-09-12T13:08:10.114Z,100261.19
2022-09-12T13:11:55.048Z,100268.13
2022-09-12T13:15:00.276Z,100264.13
2022-09-12T13:18:14.590Z,100266.16
2022-09-12T13:21:21.733Z,100269.69
2022-09-12T13:24:24.414Z,100273.09
2022-09-12T13:27:27.284Z,100260.47
2022-09-12T13:30:39.371Z,100252.50
2022-09-12T13:33:54.186Z,100247.72
2022-09-12T13:37:17.966Z,100243.47
2022-09-12T13:40:26.873Z,100231.34
2022-09-12T13:43:39.675Z,100226.34
2022-09-12T13:46:42.679Z,100221.69
2022-09-12T13:49:46.616Z,100223.81
2022-09-12T13:52:58.997Z,100212.66
2022-09-12T13:56:01.937Z,100220.97
2022-09-12T13:59:12.839Z,100211.41
2022-09-12T14:02:23.471Z,100219.44
2022-09-12T14:05:26.620Z,100219.94
2022-09-12T14:08:30.304Z,100223.37
2022-09-12T14:11:33.935Z,100213.25
2022-09-12T14:14:42.145Z,100202.41
2022-09-12T14:17:51.863Z,100209.09
2022-09-12T14:20:57.445Z,100209.75
2022-09-12T14:24:01.344Z,100197.59
2022-09-12T14:27:04.994Z,100192.44
2022-09-12T14:30:32.876Z,100193.88
2022-09-12T14:33:54.218Z,100185.06
2022-09-12T14:36:58.514Z,100166.88
2022-09-12T14:40:01.284Z,100167.06
2022-09-12T14:43:04.332Z,100161.78
2022-09-12T14:46:24.216Z,100168.09
2022-09-12T14:49:36.675Z,100169.66
2022-09-12T14:52:40.138Z,100168.28
2022-09-12T14:55:47.407Z,100173.50
2022-09-12T14:58:50.544Z,100167.38
2022-09-12T15:02:21.400Z,100177.84
2022-09-12T15:05:26.516Z,100183.44
2022-09-12T15:08:30.395Z,100182.34
2022-09-12T15:11:33.825Z,100184.78
2022-09-12T15:14:36.666Z,100187.72
2022-09-12T15:17:39.225Z,100189.63
